sensor_id;sensor_type;location;lat;lon;timestamp;P1;durP1;ratioP1;P2;durP2;ratioP2
77415;SDS011;66489;49.230;8.520;2023-05-10T00:00:10;4.55;;;1.83;;
77415;SDS011;66489;49.230;8.520;2023-05-10T00:02:38;3.50;;;1.95;;
77415;SDS011;66489;49.230;8.520;2023-05-10T00:05:05;4.60;;;1.80;;
77415;SDS011;66489;49.230;8.520;2023-05-10T00:07:32;3.83;;;1.80;;
77415;SDS011;66489;49.230;8.520;2023-05-10T00:09:58;5.10;;;1.48;;
77415;SDS011;66489;49.230;8.520;2023-05-10T00:12:25;3.55;;;1.50;;
77415;SDS011;66489;49.230;8.520;2023-05-10T00:14:51;4.32;;;1.35;;
77415;SDS011;66489;49.230;8.520;2023-05-10T00:17:18;3.75;;;1.40;;
77415;SDS011;66489;49.230;8.520;2023-05-10T00:19:44;3.15;;;1.30;;
77415;SDS011;66489;49.230;8.520;2023-05-10T00:22:11;5.53;;;1.40;;
77415;SDS011;66489;49.230;8.520;2023-05-10T00:24:37;2.30;;;1.20;;
77415;SDS011;66489;49.230;8.520;2023-05-10T00:27:04;4.20;;;1.58;;
77415;SDS011;66489;49.230;8.520;2023-05-10T00:29:31;3.58;;;1.40;;
77415;SDS011;66489;49.230;8.520;2023-05-10T00:31:57;2.63;;;1.20;;
77415;SDS011;66489;49.230;8.520;2023-05-10T00:34:24;2.92;;;1.20;;
77415;SDS011;66489;49.230;8.520;2023-05-10T00:36:51;3.95;;;1.20;;
77415;SDS011;66489;49.230;8.520;2023-05-10T00:39:17;2.80;;;1.13;;
77415;SDS011;66489;49.230;8.520;2023-05-10T00:41:44;2.20;;;1.02;;
77415;SDS011;66489;49.230;8.520;2023-05-10T00:44:10;2.58;;;1.00;;
77415;SDS011;66489;49.230;8.520;2023-05-10T00:46:37;2.10;;;1.00;;
77415;SDS011;66489;49.230;8.520;2023-05-10T00:49:04;2.22;;;0.98;;
77415;SDS011;66489;49.230;8.520;2023-05-10T00:51:30;2.47;;;0.90;;
77415;SDS011;66489;49.230;8.520;2023-05-10T00:53:58;2.53;;;1.20;;
77415;SDS011;66489;49.230;8.520;2023-05-10T00:56:25;2.47;;;1.10;;
77415;SDS011;66489;49.230;8.520;2023-05-10T00:58:51;3.63;;;1.10;;
77415;SDS011;66489;49.230;8.520;2023-05-10T01:01:19;2.78;;;1.08;;
77415;SDS011;66489;49.230;8.520;2023-05-10T01:03:46;3.97;;;0.90;;
77415;SDS011;66489;49.230;8.520;2023-05-10T01:06:14;2.47;;;1.08;;
77415;SDS011;66489;49.230;8.520;2023-05-10T01:12:49;2.55;;;1.08;;
77415;SDS011;66489;49.230;8.520;2023-05-10T01:15:16;2.35;;;1.20;;
77415;SDS011;66489;49.230;8.520;2023-05-10T01:17:44;3.47;;;1.20;;
77415;SDS011;66489;49.230;8.520;2023-05-10T01:20:11;2.70;;;1.33;;
77415;SDS011;66489;49.230;8.520;2023-05-10T01:22:54;3.20;;;1.40;;
77415;SDS011;66489;49.230;8.520;2023-05-10T01:25:51;3.40;;;1.80;;
77415;SDS011;66489;49.230;8.520;2023-05-10T01:34:34;4.03;;;1.75;;
77415;SDS011;66489;49.230;8.520;2023-05-10T01:37:09;4.80;;;1.80;;
77415;SDS011;66489;49.230;8.520;2023-05-10T01:39:51;4.63;;;1.77;;
77415;SDS011;66489;49.230;8.520;2023-05-10T01:48:22;4.57;;;1.70;;
77415;SDS011;66489;49.230;8.520;2023-05-10T01:50:43;3.83;;;1.90;;
77415;SDS011;66489;49.230;8.520;2023-05-10T01:53:10;2.97;;;1.70;;
77415;SDS011;66489;49.230;8.520;2023-05-10T01:55:43;3.80;;;1.88;;
77415;SDS011;66489;49.230;8.520;2023-05-10T01:58:13;4.20;;;1.83;;
77415;SDS011;66489;49.230;8.520;2023-05-10T02:00:42;6.70;;;2.35;;
77415;SDS011;66489;49.230;8.520;2023-05-10T02:03:10;4.05;;;1.98;;
77415;SDS011;66489;49.230;8.520;2023-05-10T02:05:38;4.72;;;2.40;;
77415;SDS011;66489;49.230;8.520;2023-05-10T02:08:05;7.72;;;2.10;;
77415;SDS011;66489;49.230;8.520;2023-05-10T02:10:35;6.20;;;2.08;;
77415;SDS011;66489;49.230;8.520;2023-05-10T02:13:03;15.73;;;2.75;;
77415;SDS011;66489;49.230;8.520;2023-05-10T02:15:30;6.45;;;2.13;;
77415;SDS011;66489;49.230;8.520;2023-05-10T02:17:57;3.92;;;2.13;;
77415;SDS011;66489;49.230;8.520;2023-05-10T02:20:24;7.60;;;2.28;;
77415;SDS011;66489;49.230;8.520;2023-05-10T02:22:52;4.68;;;2.20;;
77415;SDS011;66489;49.230;8.520;2023-05-10T02:25:21;5.53;;;2.30;;
77415;SDS011;66489;49.230;8.520;2023-05-10T02:27:48;3.90;;;2.20;;
77415;SDS011;66489;49.230;8.520;2023-05-10T02:30:16;4.00;;;2.20;;
77415;SDS011;66489;49.230;8.520;2023-05-10T02:32:44;4.65;;;2.33;;
77415;SDS011;66489;49.230;8.520;2023-05-10T02:35:11;4.28;;;2.40;;
77415;SDS011;66489;49.230;8.520;2023-05-10T02:37:38;5.07;;;2.63;;
77415;SDS011;66489;49.230;8.520;2023-05-10T02:40:06;5.07;;;2.33;;
77415;SDS011;66489;49.230;8.520;2023-05-10T02:42:35;4.80;;;2.53;;
77415;SDS011;66489;49.230;8.520;2023-05-10T02:45:05;4.72;;;2.70;;
77415;SDS011;66489;49.230;8.520;2023-05-10T02:47:34;5.00;;;2.42;;
77415;SDS011;66489;49.230;8.520;2023-05-10T02:50:01;4.32;;;2.85;;
77415;SDS011;66489;49.230;8.520;2023-05-10T02:52:30;4.13;;;2.50;;
77415;SDS011;66489;49.230;8.520;2023-05-10T02:55:05;4.10;;;2.50;;
77415;SDS011;66489;49.230;8.520;2023-05-10T02:57:33;4.38;;;2.70;;
77415;SDS011;66489;49.230;8.520;2023-05-10T03:00:00;6.35;;;2.63;;
77415;SDS011;66489;49.230;8.520;2023-05-10T03:02:29;4.78;;;2.70;;
77415;SDS011;66489;49.230;8.520;2023-05-10T03:04:58;5.82;;;2.83;;
77415;SDS011;66489;49.230;8.520;2023-05-10T03:07:25;6.45;;;2.70;;
77415;SDS011;66489;49.230;8.520;2023-05-10T03:09:51;5.75;;;3.00;;
77415;SDS011;66489;49.230;8.520;2023-05-10T03:18:02;7.13;;;2.85;;
77415;SDS011;66489;49.230;8.520;2023-05-10T03:20:38;5.72;;;2.75;;
77415;SDS011;66489;49.230;8.520;2023-05-10T03:26:08;4.72;;;2.45;;
77415;SDS011;66489;49.230;8.520;2023-05-10T03:28:35;5.50;;;2.90;;
77415;SDS011;66489;49.230;8.520;2023-05-10T03:31:04;5.23;;;2.90;;
77415;SDS011;66489;49.230;8.520;2023-05-10T03:35:59;6.10;;;2.90;;
77415;SDS011;66489;49.230;8.520;2023-05-10T03:38:26;5.07;;;3.10;;
77415;SDS011;66489;49.230;8.520;2023-05-10T03:43:22;5.28;;;3.30;;
77415;SDS011;66489;49.230;8.520;2023-05-10T03:45:48;8.18;;;3.60;;
77415;SDS011;66489;49.230;8.520;2023-05-10T03:48:15;5.18;;;3.20;;
77415;SDS011;66489;49.230;8.520;2023-05-10T03:50:41;5.40;;;3.15;;
77415;SDS011;66489;49.230;8.520;2023-05-10T03:53:09;6.68;;;3.35;;
77415;SDS011;66489;49.230;8.520;2023-05-10T03:55:35;6.50;;;3.60;;
77415;SDS011;66489;49.230;8.520;2023-05-10T03:58:02;4.75;;;2.88;;
77415;SDS011;66489;49.230;8.520;2023-05-10T04:00:29;7.72;;;3.28;;
77415;SDS011;66489;49.230;8.520;2023-05-10T04:02:56;5.13;;;3.40;;
77415;SDS011;66489;49.230;8.520;2023-05-10T04:05:23;7.30;;;3.55;;
77415;SDS011;66489;49.230;8.520;2023-05-10T04:07:51;5.83;;;3.70;;
77415;SDS011;66489;49.230;8.520;2023-05-10T04:10:18;5.78;;;3.78;;
77415;SDS011;66489;49.230;8.520;2023-05-10T04:12:45;6.78;;;3.90;;
77415;SDS011;66489;49.230;8.520;2023-05-10T04:15:11;8.45;;;3.83;;
77415;SDS011;66489;49.230;8.520;2023-05-10T04:17:38;7.93;;;4.18;;
77415;SDS011;66489;49.230;8.520;2023-05-10T04:20:04;6.18;;;4.13;;
77415;SDS011;66489;49.230;8.520;2023-05-10T04:22:32;6.78;;;4.15;;
77415;SDS011;66489;49.230;8.520;2023-05-10T04:24:59;7.65;;;4.15;;
77415;SDS011;66489;49.230;8.520;2023-05-10T04:27:25;6.88;;;4.28;;
77415;SDS011;66489;49.230;8.520;2023-05-10T04:29:52;6.88;;;3.97;;
77415;SDS011;66489;49.230;8.520;2023-05-10T04:32:19;8.85;;;4.28;;
77415;SDS011;66489;49.230;8.520;2023-05-10T04:34:46;5.93;;;4.28;;
77415;SDS011;66489;49.230;8.520;2023-05-10T04:37:13;6.97;;;4.47;;
77415;SDS011;66489;49.230;8.520;2023-05-10T04:39:39;6.70;;;4.20;;
77415;SDS011;66489;49.230;8.520;2023-05-10T04:42:07;8.43;;;4.95;;
77415;SDS011;66489;49.230;8.520;2023-05-10T04:44:34;6.93;;;4.30;;
77415;SDS011;66489;49.230;8.520;2023-05-10T04:47:01;7.47;;;4.68;;
77415;SDS011;66489;49.230;8.520;2023-05-10T04:49:29;6.13;;;4.25;;
77415;SDS011;66489;49.230;8.520;2023-05-10T04:51:56;8.68;;;4.47;;
77415;SDS011;66489;49.230;8.520;2023-05-10T04:54:25;7.22;;;4.20;;
77415;SDS011;66489;49.230;8.520;2023-05-10T04:56:52;7.75;;;4.63;;
77415;SDS011;66489;49.230;8.520;2023-05-10T04:59:18;6.00;;;4.40;;
77415;SDS011;66489;49.230;8.520;2023-05-10T05:01:45;7.28;;;4.50;;
77415;SDS011;66489;49.230;8.520;2023-05-10T05:04:12;7.38;;;4.85;;
77415;SDS011;66489;49.230;8.520;2023-05-10T05:06:38;12.07;;;7.78;;
77415;SDS011;66489;49.230;8.520;2023-05-10T05:09:05;6.57;;;4.82;;
77415;SDS011;66489;49.230;8.520;2023-05-10T05:11:31;7.43;;;4.97;;
77415;SDS011;66489;49.230;8.520;2023-05-10T05:13:58;7.75;;;5.05;;
77415;SDS011;66489;49.230;8.520;2023-05-10T05:16:25;8.30;;;5.07;;
77415;SDS011;66489;49.230;8.520;2023-05-10T05:18:52;8.30;;;4.65;;
77415;SDS011;66489;49.230;8.520;2023-05-10T05:21:19;7.25;;;4.90;;
77415;SDS011;66489;49.230;8.520;2023-05-10T05:23:46;8.13;;;4.80;;
77415;SDS011;66489;49.230;8.520;2023-05-10T05:26:13;6.68;;;4.75;;
77415;SDS011;66489;49.230;8.520;2023-05-10T05:28:41;6.40;;;4.82;;
77415;SDS011;66489;49.230;8.520;2023-05-10T05:31:07;7.22;;;5.20;;
77415;SDS011;66489;49.230;8.520;2023-05-10T05:33:34;8.75;;;4.82;;
77415;SDS011;66489;49.230;8.520;2023-05-10T05:36:01;7.40;;;5.57;;
77415;SDS011;66489;49.230;8.520;2023-05-10T05:38:28;7.35;;;5.10;;
77415;SDS011;66489;49.230;8.520;2023-05-10T05:40:55;8.18;;;5.55;;
77415;SDS011;66489;49.230;8.520;2023-05-10T05:43:22;7.72;;;5.38;;
77415;SDS011;66489;49.230;8.520;2023-05-10T05:45:49;7.93;;;4.60;;
77415;SDS011;66489;49.230;8.520;2023-05-10T05:48:18;6.78;;;4.80;;
77415;SDS011;66489;49.230;8.520;2023-05-10T05:50:48;7.05;;;4.80;;
77415;SDS011;66489;49.230;8.520;2023-05-10T05:55:54;6.55;;;4.32;;
77415;SDS011;66489;49.230;8.520;2023-05-10T05:58:22;6.35;;;3.92;;
77415;SDS011;66489;49.230;8.520;2023-05-10T06:00:49;7.50;;;4.43;;
77415;SDS011;66489;49.230;8.520;2023-05-10T06:03:15;6.88;;;4.03;;
77415;SDS011;66489;49.230;8.520;2023-05-10T06:05:46;6.78;;;3.60;;
77415;SDS011;66489;49.230;8.520;2023-05-10T06:08:12;6.32;;;3.90;;
77415;SDS011;66489;49.230;8.520;2023-05-10T06:10:39;6.97;;;3.80;;
77415;SDS011;66489;49.230;8.520;2023-05-10T06:13:05;7.75;;;4.13;;
77415;SDS011;66489;49.230;8.520;2023-05-10T06:15:32;6.38;;;3.83;;
77415;SDS011;66489;49.230;8.520;2023-05-10T06:17:59;6.00;;;3.83;;
77415;SDS011;66489;49.230;8.520;2023-05-10T06:20:26;6.63;;;4.32;;
77415;SDS011;66489;49.230;8.520;2023-05-10T06:22:52;7.32;;;4.60;;
77415;SDS011;66489;49.230;8.520;2023-05-10T06:25:19;8.68;;;4.80;;
77415;SDS011;66489;49.230;8.520;2023-05-10T06:27:46;8.85;;;4.50;;
77415;SDS011;66489;49.230;8.520;2023-05-10T06:30:18;8.68;;;4.72;;
77415;SDS011;66489;49.230;8.520;2023-05-10T06:32:44;7.32;;;4.72;;
77415;SDS011;66489;49.230;8.520;2023-05-10T06:35:11;6.88;;;4.85;;
77415;SDS011;66489;49.230;8.520;2023-05-10T06:37:38;8.50;;;5.35;;
77415;SDS011;66489;49.230;8.520;2023-05-10T06:40:05;8.18;;;5.68;;
77415;SDS011;66489;49.230;8.520;2023-05-10T06:42:35;8.38;;;5.70;;
77415;SDS011;66489;49.230;8.520;2023-05-10T06:45:02;8.15;;;5.18;;
77415;SDS011;66489;49.230;8.520;2023-05-10T06:47:28;8.35;;;5.50;;
77415;SDS011;66489;49.230;8.520;2023-05-10T06:49:55;9.68;;;5.60;;
77415;SDS011;66489;49.230;8.520;2023-05-10T06:52:22;6.68;;;4.95;;
77415;SDS011;66489;49.230;8.520;2023-05-10T06:54:48;9.23;;;5.32;;
77415;SDS011;66489;49.230;8.520;2023-05-10T06:57:18;11.05;;;5.55;;
77415;SDS011;66489;49.230;8.520;2023-05-10T06:59:57;8.25;;;5.03;;
77415;SDS011;66489;49.230;8.520;2023-05-10T07:02:27;6.72;;;4.57;;
77415;SDS011;66489;49.230;8.520;2023-05-10T07:04:54;10.77;;;4.90;;
77415;SDS011;66489;49.230;8.520;2023-05-10T07:07:21;8.27;;;4.57;;
77415;SDS011;66489;49.230;8.520;2023-05-10T07:09:47;6.80;;;4.30;;
77415;SDS011;66489;49.230;8.520;2023-05-10T07:12:15;7.35;;;3.65;;
77415;SDS011;66489;49.230;8.520;2023-05-10T07:14:42;6.47;;;3.85;;
77415;SDS011;66489;49.230;8.520;2023-05-10T07:17:09;7.75;;;3.83;;
77415;SDS011;66489;49.230;8.520;2023-05-10T07:19:38;6.95;;;3.63;;
77415;SDS011;66489;49.230;8.520;2023-05-10T07:22:05;6.43;;;3.35;;
77415;SDS011;66489;49.230;8.520;2023-05-10T07:24:32;5.18;;;3.50;;
77415;SDS011;66489;49.230;8.520;2023-05-10T07:26:59;5.40;;;3.17;;
77415;SDS011;66489;49.230;8.520;2023-05-10T07:29:26;6.80;;;3.63;;
77415;SDS011;66489;49.230;8.520;2023-05-10T07:31:55;5.13;;;3.20;;
77415;SDS011;66489;49.230;8.520;2023-05-10T07:34:27;5.03;;;3.30;;
77415;SDS011;66489;49.230;8.520;2023-05-10T07:36:54;5.25;;;3.17;;
77415;SDS011;66489;49.230;8.520;2023-05-10T07:39:21;5.00;;;3.10;;
77415;SDS011;66489;49.230;8.520;2023-05-10T07:41:53;6.43;;;3.70;;
77415;SDS011;66489;49.230;8.520;2023-05-10T07:44:20;5.80;;;2.80;;
77415;SDS011;66489;49.230;8.520;2023-05-10T07:46:47;6.13;;;3.00;;
77415;SDS011;66489;49.230;8.520;2023-05-10T07:49:14;4.32;;;2.80;;
77415;SDS011;66489;49.230;8.520;2023-05-10T07:51:41;4.80;;;3.00;;
77415;SDS011;66489;49.230;8.520;2023-05-10T07:54:08;5.97;;;2.30;;
77415;SDS011;66489;49.230;8.520;2023-05-10T07:56:38;3.70;;;2.20;;
77415;SDS011;66489;49.230;8.520;2023-05-10T07:59:06;4.60;;;2.35;;
77415;SDS011;66489;49.230;8.520;2023-05-10T08:01:35;3.50;;;2.10;;
77415;SDS011;66489;49.230;8.520;2023-05-10T08:04:02;5.35;;;2.30;;
77415;SDS011;66489;49.230;8.520;2023-05-10T08:06:29;5.25;;;2.35;;
77415;SDS011;66489;49.230;8.520;2023-05-10T08:08:56;7.78;;;2.20;;
77415;SDS011;66489;49.230;8.520;2023-05-10T08:11:23;5.25;;;2.03;;
77415;SDS011;66489;49.230;8.520;2023-05-10T08:13:50;5.00;;;2.10;;
77415;SDS011;66489;49.230;8.520;2023-05-10T08:16:17;3.40;;;1.80;;
77415;SDS011;66489;49.230;8.520;2023-05-10T08:18:44;4.82;;;1.75;;
77415;SDS011;66489;49.230;8.520;2023-05-10T08:21:13;4.30;;;1.85;;
77415;SDS011;66489;49.230;8.520;2023-05-10T08:23:40;5.75;;;1.90;;
77415;SDS011;66489;49.230;8.520;2023-05-10T08:26:07;3.50;;;1.60;;
77415;SDS011;66489;49.230;8.520;2023-05-10T08:28:33;4.75;;;1.70;;
77415;SDS011;66489;49.230;8.520;2023-05-10T08:31:00;4.20;;;1.65;;
77415;SDS011;66489;49.230;8.520;2023-05-10T08:33:27;3.28;;;1.48;;
77415;SDS011;66489;49.230;8.520;2023-05-10T08:35:53;4.47;;;1.40;;
77415;SDS011;66489;49.230;8.520;2023-05-10T08:38:20;4.03;;;1.40;;
77415;SDS011;66489;49.230;8.520;2023-05-10T08:40:46;4.55;;;1.30;;
77415;SDS011;66489;49.230;8.520;2023-05-10T08:43:15;3.25;;;1.10;;
77415;SDS011;66489;49.230;8.520;2023-05-10T08:45:42;2.92;;;1.20;;
77415;SDS011;66489;49.230;8.520;2023-05-10T08:48:11;3.58;;;1.13;;
77415;SDS011;66489;49.230;8.520;2023-05-10T08:50:38;3.47;;;1.10;;
77415;SDS011;66489;49.230;8.520;2023-05-10T08:53:10;3.80;;;1.20;;
77415;SDS011;66489;49.230;8.520;2023-05-10T08:55:38;3.58;;;1.30;;
77415;SDS011;66489;49.230;8.520;2023-05-10T08:58:06;2.63;;;1.23;;
77415;SDS011;66489;49.230;8.520;2023-05-10T09:00:33;3.80;;;1.38;;
77415;SDS011;66489;49.230;8.520;2023-05-10T09:03:00;3.22;;;1.30;;
77415;SDS011;66489;49.230;8.520;2023-05-10T09:05:27;2.72;;;1.25;;
77415;SDS011;66489;49.230;8.520;2023-05-10T09:07:54;3.05;;;1.30;;
77415;SDS011;66489;49.230;8.520;2023-05-10T09:10:24;2.40;;;1.20;;
77415;SDS011;66489;49.230;8.520;2023-05-10T09:15:20;3.72;;;1.52;;
77415;SDS011;66489;49.230;8.520;2023-05-10T09:17:46;2.63;;;1.40;;
77415;SDS011;66489;49.230;8.520;2023-05-10T09:20:13;3.10;;;1.30;;
77415;SDS011;66489;49.230;8.520;2023-05-10T09:22:40;3.55;;;1.75;;
77415;SDS011;66489;49.230;8.520;2023-05-10T09:25:11;4.75;;;2.15;;
77415;SDS011;66489;49.230;8.520;2023-05-10T09:27:39;3.67;;;1.55;;
77415;SDS011;66489;49.230;8.520;2023-05-10T09:30:07;3.40;;;1.50;;
77415;SDS011;66489;49.230;8.520;2023-05-10T09:32:44;3.80;;;1.50;;
77415;SDS011;66489;49.230;8.520;2023-05-10T09:37:40;3.58;;;1.40;;
77415;SDS011;66489;49.230;8.520;2023-05-10T09:40:08;3.42;;;1.77;;
77415;SDS011;66489;49.230;8.520;2023-05-10T09:42:38;4.30;;;1.92;;
77415;SDS011;66489;49.230;8.520;2023-05-10T09:45:05;3.65;;;1.73;;
77415;SDS011;66489;49.230;8.520;2023-05-10T09:47:36;3.63;;;1.75;;
77415;SDS011;66489;49.230;8.520;2023-05-10T09:50:03;3.17;;;1.60;;
77415;SDS011;66489;49.230;8.520;2023-05-10T09:52:31;2.75;;;1.50;;
77415;SDS011;66489;49.230;8.520;2023-05-10T09:55:12;3.00;;;1.50;;
77415;SDS011;66489;49.230;8.520;2023-05-10T09:57:39;3.30;;;1.70;;
77415;SDS011;66489;49.230;8.520;2023-05-10T10:00:07;4.35;;;1.63;;
77415;SDS011;66489;49.230;8.520;2023-05-10T10:02:40;3.00;;;1.42;;
77415;SDS011;66489;49.230;8.520;2023-05-10T10:05:06;4.07;;;1.60;;
77415;SDS011;66489;49.230;8.520;2023-05-10T10:07:33;3.15;;;1.80;;
77415;SDS011;66489;49.230;8.520;2023-05-10T10:10:00;4.63;;;1.80;;
77415;SDS011;66489;49.230;8.520;2023-05-10T10:12:28;4.85;;;1.83;;
77415;SDS011;66489;49.230;8.520;2023-05-10T10:14:54;4.32;;;1.90;;
77415;SDS011;66489;49.230;8.520;2023-05-10T10:17:21;3.92;;;1.70;;
77415;SDS011;66489;49.230;8.520;2023-05-10T10:19:53;3.78;;;1.67;;
77415;SDS011;66489;49.230;8.520;2023-05-10T10:22:23;3.15;;;1.50;;
77415;SDS011;66489;49.230;8.520;2023-05-10T10:24:50;3.35;;;1.58;;
77415;SDS011;66489;49.230;8.520;2023-05-10T10:35:20;4.35;;;1.15;;
77415;SDS011;66489;49.230;8.520;2023-05-10T10:37:47;2.97;;;1.45;;
77415;SDS011;66489;49.230;8.520;2023-05-10T10:40:27;3.97;;;1.50;;
77415;SDS011;66489;49.230;8.520;2023-05-10T10:42:55;2.40;;;1.10;;
77415;SDS011;66489;49.230;8.520;2023-05-10T10:45:22;2.92;;;1.50;;
77415;SDS011;66489;49.230;8.520;2023-05-10T10:47:56;4.03;;;1.58;;
77415;SDS011;66489;49.230;8.520;2023-05-10T10:50:55;2.92;;;1.50;;
77415;SDS011;66489;49.230;8.520;2023-05-10T10:53:23;3.20;;;1.40;;
77415;SDS011;66489;49.230;8.520;2023-05-10T10:55:55;3.55;;;1.30;;
77415;SDS011;66489;49.230;8.520;2023-05-10T10:58:33;4.85;;;1.20;;
77415;SDS011;66489;49.230;8.520;2023-05-10T11:06:32;2.85;;;1.20;;
77415;SDS011;66489;49.230;8.520;2023-05-10T11:09:07;3.08;;;1.00;;
77415;SDS011;66489;49.230;8.520;2023-05-10T11:11:35;3.25;;;1.13;;
77415;SDS011;66489;49.230;8.520;2023-05-10T11:14:06;3.88;;;1.20;;
77415;SDS011;66489;49.230;8.520;2023-05-10T11:16:40;3.08;;;1.35;;
77415;SDS011;66489;49.230;8.520;2023-05-10T11:19:11;4.70;;;1.50;;
77415;SDS011;66489;49.230;8.520;2023-05-10T11:24:16;4.70;;;1.35;;
77415;SDS011;66489;49.230;8.520;2023-05-10T11:26:44;3.65;;;1.17;;
77415;SDS011;66489;49.230;8.520;2023-05-10T11:29:12;4.43;;;1.30;;
77415;SDS011;66489;49.230;8.520;2023-05-10T11:31:43;3.60;;;1.00;;
77415;SDS011;66489;49.230;8.520;2023-05-10T11:34:11;4.13;;;1.30;;
77415;SDS011;66489;49.230;8.520;2023-05-10T11:36:38;5.40;;;1.20;;
77415;SDS011;66489;49.230;8.520;2023-05-10T11:39:05;3.40;;;1.13;;
77415;SDS011;66489;49.230;8.520;2023-05-10T11:41:32;3.55;;;1.25;;
77415;SDS011;66489;49.230;8.520;2023-05-10T11:43:58;3.95;;;1.30;;
77415;SDS011;66489;49.230;8.520;2023-05-10T11:46:27;2.88;;;1.10;;
77415;SDS011;66489;49.230;8.520;2023-05-10T11:48:58;4.53;;;1.27;;
77415;SDS011;66489;49.230;8.520;2023-05-10T11:51:27;5.63;;;0.98;;
77415;SDS011;66489;49.230;8.520;2023-05-10T11:53:56;3.38;;;1.00;;
77415;SDS011;66489;49.230;8.520;2023-05-10T11:56:23;3.70;;;1.30;;
77415;SDS011;66489;49.230;8.520;2023-05-10T11:58:54;4.75;;;1.30;;
77415;SDS011;66489;49.230;8.520;2023-05-10T12:01:30;3.28;;;1.10;;
77415;SDS011;66489;49.230;8.520;2023-05-10T12:04:08;4.03;;;1.08;;
77415;SDS011;66489;49.230;8.520;2023-05-10T12:06:37;5.97;;;1.50;;
77415;SDS011;66489;49.230;8.520;2023-05-10T12:09:06;4.88;;;1.70;;
77415;SDS011;66489;49.230;8.520;2023-05-10T12:11:36;6.38;;;1.77;;
77415;SDS011;66489;49.230;8.520;2023-05-10T12:14:09;3.75;;;1.40;;
77415;SDS011;66489;49.230;8.520;2023-05-10T12:16:36;4.25;;;1.30;;
77415;SDS011;66489;49.230;8.520;2023-05-10T12:19:03;4.88;;;1.10;;
77415;SDS011;66489;49.230;8.520;2023-05-10T12:21:30;4.00;;;1.15;;
77415;SDS011;66489;49.230;8.520;2023-05-10T12:24:06;6.68;;;1.40;;
77415;SDS011;66489;49.230;8.520;2023-05-10T12:26:33;4.13;;;1.52;;
77415;SDS011;66489;49.230;8.520;2023-05-10T12:34:25;5.68;;;1.63;;
77415;SDS011;66489;49.230;8.520;2023-05-10T12:36:52;2.90;;;1.20;;
77415;SDS011;66489;49.230;8.520;2023-05-10T12:39:19;3.13;;;1.10;;
77415;SDS011;66489;49.230;8.520;2023-05-10T12:41:46;3.58;;;1.30;;
77415;SDS011;66489;49.230;8.520;2023-05-10T12:44:13;4.20;;;1.27;;
77415;SDS011;66489;49.230;8.520;2023-05-10T12:46:39;3.30;;;1.42;;
77415;SDS011;66489;49.230;8.520;2023-05-10T12:49:06;6.72;;;1.30;;
77415;SDS011;66489;49.230;8.520;2023-05-10T12:51:34;4.47;;;1.13;;
77415;SDS011;66489;49.230;8.520;2023-05-10T12:54:02;2.95;;;1.10;;
77415;SDS011;66489;49.230;8.520;2023-05-10T12:56:29;4.05;;;1.15;;
77415;SDS011;66489;49.230;8.520;2023-05-10T12:58:55;3.00;;;1.30;;
77415;SDS011;66489;49.230;8.520;2023-05-10T13:01:22;2.85;;;1.23;;
77415;SDS011;66489;49.230;8.520;2023-05-10T13:03:49;3.45;;;1.15;;
77415;SDS011;66489;49.230;8.520;2023-05-10T13:06:15;3.28;;;1.10;;
77415;SDS011;66489;49.230;8.520;2023-05-10T13:08:42;5.80;;;1.95;;
77415;SDS011;66489;49.230;8.520;2023-05-10T13:11:09;2.17;;;1.02;;
77415;SDS011;66489;49.230;8.520;2023-05-10T13:13:35;3.78;;;1.00;;
77415;SDS011;66489;49.230;8.520;2023-05-10T13:16:02;5.28;;;1.15;;
77415;SDS011;66489;49.230;8.520;2023-05-10T13:18:29;3.00;;;1.15;;
77415;SDS011;66489;49.230;8.520;2023-05-10T13:20:56;2.33;;;1.02;;
77415;SDS011;66489;49.230;8.520;2023-05-10T13:23:23;3.95;;;1.10;;
77415;SDS011;66489;49.230;8.520;2023-05-10T13:25:49;4.50;;;1.08;;
77415;SDS011;66489;49.230;8.520;2023-05-10T13:28:16;2.90;;;1.30;;
77415;SDS011;66489;49.230;8.520;2023-05-10T13:30:43;4.13;;;1.15;;
77415;SDS011;66489;49.230;8.520;2023-05-10T13:33:09;3.25;;;1.10;;
77415;SDS011;66489;49.230;8.520;2023-05-10T13:35:36;2.92;;;1.10;;
77415;SDS011;66489;49.230;8.520;2023-05-10T13:38:03;4.85;;;1.10;;
77415;SDS011;66489;49.230;8.520;2023-05-10T13:40:29;3.17;;;1.10;;
77415;SDS011;66489;49.230;8.520;2023-05-10T13:42:56;3.95;;;1.00;;
77415;SDS011;66489;49.230;8.520;2023-05-10T13:45:23;5.43;;;1.17;;
77415;SDS011;66489;49.230;8.520;2023-05-10T13:47:49;3.22;;;1.17;;
77415;SDS011;66489;49.230;8.520;2023-05-10T13:50:16;2.20;;;1.10;;
77415;SDS011;66489;49.230;8.520;2023-05-10T13:52:43;2.67;;;1.05;;
77415;SDS011;66489;49.230;8.520;2023-05-10T13:55:09;2.88;;;1.17;;
77415;SDS011;66489;49.230;8.520;2023-05-10T13:57:38;4.18;;;0.90;;
77415;SDS011;66489;49.230;8.520;2023-05-10T14:00:05;2.72;;;0.90;;
77415;SDS011;66489;49.230;8.520;2023-05-10T14:02:35;3.20;;;0.90;;
77415;SDS011;66489;49.230;8.520;2023-05-10T14:05:03;5.00;;;1.20;;
77415;SDS011;66489;49.230;8.520;2023-05-10T14:07:30;1.65;;;0.80;;
77415;SDS011;66489;49.230;8.520;2023-05-10T14:09:56;2.88;;;1.00;;
77415;SDS011;66489;49.230;8.520;2023-05-10T14:12:23;2.22;;;1.05;;
77415;SDS011;66489;49.230;8.520;2023-05-10T14:14:50;4.72;;;1.10;;
77415;SDS011;66489;49.230;8.520;2023-05-10T14:17:18;2.42;;;0.80;;
77415;SDS011;66489;49.230;8.520;2023-05-10T14:19:45;2.40;;;0.93;;
77415;SDS011;66489;49.230;8.520;2023-05-10T14:22:12;3.38;;;0.70;;
77415;SDS011;66489;49.230;8.520;2023-05-10T14:24:38;2.67;;;0.70;;
77415;SDS011;66489;49.230;8.520;2023-05-10T14:27:05;2.40;;;0.60;;
77415;SDS011;66489;49.230;8.520;2023-05-10T14:29:32;2.08;;;0.90;;
77415;SDS011;66489;49.230;8.520;2023-05-10T14:31:59;3.83;;;1.10;;
77415;SDS011;66489;49.230;8.520;2023-05-10T14:34:25;2.53;;;0.77;;
77415;SDS011;66489;49.230;8.520;2023-05-10T14:36:52;5.75;;;1.40;;
77415;SDS011;66489;49.230;8.520;2023-05-10T14:39:19;4.13;;;1.00;;
77415;SDS011;66489;49.230;8.520;2023-05-10T14:41:45;7.80;;;1.80;;
77415;SDS011;66489;49.230;8.520;2023-05-10T14:44:13;4.95;;;1.65;;
77415;SDS011;66489;49.230;8.520;2023-05-10T14:46:39;4.22;;;2.05;;
77415;SDS011;66489;49.230;8.520;2023-05-10T14:49:06;3.97;;;1.50;;
77415;SDS011;66489;49.230;8.520;2023-05-10T14:51:33;4.90;;;1.35;;
77415;SDS011;66489;49.230;8.520;2023-05-10T14:54:00;5.03;;;2.50;;
77415;SDS011;66489;49.230;8.520;2023-05-10T14:56:27;5.28;;;2.60;;
77415;SDS011;66489;49.230;8.520;2023-05-10T14:58:54;4.55;;;1.45;;
77415;SDS011;66489;49.230;8.520;2023-05-10T15:01:21;4.15;;;1.20;;
77415;SDS011;66489;49.230;8.520;2023-05-10T15:03:48;2.15;;;0.70;;
77415;SDS011;66489;49.230;8.520;2023-05-10T15:06:15;3.22;;;0.80;;
77415;SDS011;66489;49.230;8.520;2023-05-10T15:08:42;1.98;;;0.80;;
77415;SDS011;66489;49.230;8.520;2023-05-10T15:11:09;2.35;;;0.80;;
77415;SDS011;66489;49.230;8.520;2023-05-10T15:13:36;4.47;;;0.90;;
77415;SDS011;66489;49.230;8.520;2023-05-10T15:16:02;5.05;;;0.90;;
77415;SDS011;66489;49.230;8.520;2023-05-10T15:18:29;2.08;;;0.93;;
77415;SDS011;66489;49.230;8.520;2023-05-10T15:20:56;5.07;;;1.10;;
77415;SDS011;66489;49.230;8.520;2023-05-10T15:23:24;2.23;;;0.87;;
77415;SDS011;66489;49.230;8.520;2023-05-10T15:25:51;2.05;;;0.70;;
77415;SDS011;66489;49.230;8.520;2023-05-10T15:28:21;2.33;;;0.68;;
77415;SDS011;66489;49.230;8.520;2023-05-10T15:30:49;2.35;;;0.80;;
77415;SDS011;66489;49.230;8.520;2023-05-10T15:33:16;2.85;;;0.82;;
77415;SDS011;66489;49.230;8.520;2023-05-10T15:35:42;2.03;;;0.70;;
77415;SDS011;66489;49.230;8.520;2023-05-10T15:38:09;1.42;;;0.70;;
77415;SDS011;66489;49.230;8.520;2023-05-10T15:40:36;4.20;;;1.27;;
77415;SDS011;66489;49.230;8.520;2023-05-10T15:43:03;3.33;;;0.80;;
77415;SDS011;66489;49.230;8.520;2023-05-10T15:45:33;3.60;;;0.80;;
77415;SDS011;66489;49.230;8.520;2023-05-10T15:48:02;1.52;;;0.63;;
77415;SDS011;66489;49.230;8.520;2023-05-10T15:50:29;2.88;;;0.70;;